Latest Coastal Weather Observations for Newcastle Nobbys

IDN60701

Issued at 4:42 pm EDT Thursday 25 February 2021 (issued every 10 minutes, with the page automatically refreshed every 10 minutes)

About coastal observations | Map of coastal stations | Coastal observations for NSW | Marine services | Other Formats
Station Details ID: 061055 Name: NEWCASTLE NOBBYS SIGNAL STATION AWS Lat: -32.92 Lon: 151.80 Height: 33.0 m
Data from the previous 72 hours. | See also: Recent months at Newcastle Nobbys
Date/Time
EDT
Wind Sea
Height
m
Swell Vis
km
Cloud Weather Temp
°C
Press
MSL
hPa
Rain since
9am
mm
Dir  Spd
kts
Gust
kts
Height
m
Period
s
Dir
25/04:30pm NE 8 10 - - - - - - - 23.2 - -
25/04:00pm NNE 4 5 - - - - - - - 23.1 - -
25/03:30pm NE 3 6 - - - - - - - 23.0 - -
25/03:00pm NNE 4 5 - - - - - - - 23.1 - -
25/02:30pm NE 5 7 - - - - - - - 22.6 - -
25/02:00pm ENE 5 7 - - - - - - - 22.6 - -
25/01:30pm NE 3 5 - - - - - - - 22.7 - -
25/01:00pm NE 4 6 - - - - - - - 22.4 - -
25/12:30pm NNE 4 6 - - - - - - - 22.0 - -
25/12:00pm NNW 2 4 - - - - - - - 22.3 - -
25/11:30am N 3 5 - - - - - - - 21.4 - -
25/11:00am N 5 6 - - - - - - - 20.8 - -
25/10:30am N 6 8 - - - - - - - 20.7 - -
25/10:00am N 5 6 - - - - - - - 20.9 - -
25/09:30am NW 7 8 - - - - - - - 20.6 - -
25/09:00am NW 6 7 - - - - - - - 20.8 - -
25/08:30am NW 5 6 - - - - - - - 20.4 - -
25/08:00am NNW 5 8 - - - - - - - 20.1 - -
25/07:30am NNW 8 9 - - - - - - - 19.7 - -
25/07:00am NNW 6 8 - - - - - - - 19.3 - -
25/06:30am NW 6 7 - - - - - - - 19.3 - -
25/06:00am NW 7 9 - - - - - - - 19.5 - -
25/05:30am NNE 13 17 - - - - - - - 20.6 - -
25/05:00am NE 12 16 - - - - - - - 20.6 - -
25/04:30am NNE 14 17 - - - - - - - 20.4 - -
25/04:00am NNE 10 15 - - - - - - - 20.8 - -
25/03:30am NNE 11 17 - - - - - - - 20.6 - -
25/03:00am NNE 11 15 - - - - - - - 20.6 - -
25/02:30am NNE 13 17 - - - - - - - 20.8 - -
25/02:00am NNE 13 19 - - - - - - - 21.2 - -
25/01:30am NE 13 20 - - - - - - - 21.2 - -
25/01:00am NNE 12 17 - - - - - - - 21.3 - -
25/12:30am NE 10 15 - - - - - - - 21.3 - -
25/12:00am NE 9 13 - - - - - - - 21.1 - -
 
Date/Time
EDT
Wind Sea
Height
m
Swell Vis
km
Cloud Weather Temp
°C
Press
MSL
hPa
Rain since
9am
mm
Dir  Spd
kts
Gust
kts
Height
m
Period
s
Dir
24/11:30pm NNE 11 15 - - - - - - - 21.4 - -
24/11:00pm NNE 10 14 - - - - - - - 21.6 - -
24/10:30pm NE 9 13 - - - - - - - 21.6 - -
24/10:00pm NE 11 14 - - - - - - - 21.5 - -
24/09:30pm NE 11 15 - - - - - - - 21.3 - -
24/09:00pm NE 11 16 - - - - - - - 21.1 - -
24/08:30pm NNE 10 13 - - - - - - - 21.4 - -
24/08:00pm NE 7 11 - - - - - - - 21.3 - -
24/07:30pm NE 12 16 - - - - - - - 21.5 - -
24/07:00pm E 13 17 - - - - - - - 21.5 - -
24/06:30pm ENE 9 14 - - - - - - - 21.5 - -
24/06:00pm ENE 12 16 - - - - - - - 21.8 - -
24/05:30pm ESE 11 13 - - - - - - - 21.5 - -
24/05:00pm E 10 13 - - - - - - - 21.3 - -
24/04:30pm E 9 11 - - - - - - - 21.1 - -
24/04:00pm E 10 12 - - - - - - - 21.2 - -
24/03:30pm SE 10 13 - - - - - - - 20.8 - -
24/03:00pm S 6 8 - - - - - - - 20.5 - -
24/02:30pm S 9 12 - - - - - - - 20.3 - -
24/02:00pm S 9 13 - - - - - - - 20.4 - -
24/01:30pm S 11 14 - - - - - - - 20.6 - -
24/01:00pm S 6 10 - - - - - - - 21.1 - -
24/12:30pm SW 5 7 - - - - - - - 20.7 - -
24/12:00pm SW 6 9 - - - - - - - 20.1 - -
24/11:30am S 9 12 - - - - - - - 19.8 - -
24/11:00am SSW 8 11 - - - - - - - 20.3 - -
24/10:30am SSW 8 10 - - - - - - - 20.2 - -
24/10:00am SSW 6 10 - - - - - - - 19.8 - -
24/09:30am SSW 7 11 - - - - - - - 19.6 - -
24/09:00am WNW 2 4 - - - - - - - 19.2 - -
24/08:30am W 8 10 - - - - - - - 19.0 - -
24/08:00am WSW 5 8 - - - - - - - 19.2 - -
24/07:30am WSW 6 8 - - - - - - - 18.8 - -
24/07:00am SW 5 9 - - - - - - - 18.5 - -
24/06:30am SW 8 13 - - - - - - - 18.3 - -
24/06:00am SW 9 14 - - - - - - - 18.1 - -
24/05:30am SW 7 10 - - - - - - - 18.0 - -
24/05:00am SW 9 14 - - - - - - - 18.2 - -
24/04:30am SSW 8 11 - - - - - - - 18.2 - -
24/04:00am SW 7 10 - - - - - - - 18.1 - -
24/03:30am WSW 6 9 - - - - - - - 18.0 - -
24/03:00am SSW 8 13 - - - - - - - 18.4 - -
24/02:30am SW 7 12 - - - - - - - 18.6 - -
24/02:00am SW 6 10 - - - - - - - 19.0 - -
24/01:30am S 12 17 - - - - - - - 20.2 - -
24/01:00am S 8 15 - - - - - - - 19.4 - -
24/12:30am ESE 10 12 - - - - - - - 19.1 - -
24/12:00am SE 11 15 - - - - - - - 18.8 - -
 
Date/Time
EDT
Wind Sea
Height
m
Swell Vis
km
Cloud Weather Temp
°C
Press
MSL
hPa
Rain since
9am
mm
Dir  Spd
kts
Gust
kts
Height
m
Period
s
Dir
23/11:30pm SE 12 15 - - - - - - - 19.7 - -
23/11:00pm SE 18 20 - - - - - - - 19.5 - -
23/10:30pm SSE 18 20 - - - - - - - 19.9 - -
23/10:00pm S 17 21 - - - - - - - 20.4 - -
23/09:30pm S 16 22 - - - - - - - 20.4 - -
23/09:00pm S 15 21 - - - - - - - 20.7 - -
23/08:30pm S 18 21 - - - - - - - 20.6 - -
23/08:00pm S 19 27 - - - - - - - 20.3 - -
23/07:30pm SSE 18 21 - - - - - - - 20.9 - -
23/07:00pm SSE 20 23 - - - - - - - 20.7 - -
23/06:30pm SSE 19 24 - - - - - - - 20.3 - -
23/06:00pm SSE 20 23 - - - - - - - 20.5 - -
23/05:30pm SSE 21 25 - - - - - - - 20.4 - -
23/05:00pm S 20 24 - - - - - - - 20.3 - -
23/04:30pm SSE 19 24 - - - - - - - 20.7 - -
23/04:00pm SSE 20 24 - - - - - - - 20.2 - -
23/03:30pm SSE 20 24 - - - - - - - 20.1 - -
23/03:00pm SSE 19 22 - - - - - - - 20.7 - -
23/02:30pm SSE 18 23 - - - - - - - 20.3 - -
23/02:00pm SSE 14 20 - - - - - - - 20.6 - -
23/01:30pm SSE 17 22 - - - - - - - 20.7 - -
23/01:00pm SSE 14 17 - - - - - - - 20.2 - -
23/12:30pm SSE 14 18 - - - - - - - 19.9 - -
23/12:00pm SSE 17 20 - - - - - - - 19.7 - -
23/11:30am SSE 16 19 - - - - - - - 21.1 - -
23/11:29am SSE 16 19 - - - - - - - 21.1 - -
23/11:00am S 20 23 - - - - - - - 21.1 - -
23/10:30am SSE 19 23 - - - - - - - 21.3 - -
23/10:00am SE 14 18 - - - - - - - 20.6 - -
23/09:30am S 17 21 - - - - - - - 21.1 - -
23/09:00am S 14 19 - - - - - - - 22.1 - -
23/08:30am S 15 17 - - - - - - - 21.8 - -
23/08:00am S 17 21 - - - - - - - 21.9 - -
23/07:30am S 14 18 - - - - - - - 21.7 - -
23/07:00am S 18 21 - - - - - - - 21.1 - -
23/06:30am SSE 19 22 - - - - - - - 21.1 - -
23/06:00am S 19 23 - - - - - - - 20.6 - -
23/05:30am SSE 21 27 - - - - - - - 20.7 - -
23/05:00am S 19 26 - - - - - - - 20.5 - -
23/04:30am S 16 21 - - - - - - - 20.6 - -
23/04:00am S 17 22 - - - - - - - 21.0 - -
23/03:30am S 22 26 - - - - - - - 20.7 - -
23/03:00am S 21 26 - - - - - - - 20.7 - -
23/02:30am S 20 25 - - - - - - - 20.8 - -
23/02:00am S 22 25 - - - - - - - 21.0 - -
23/01:30am SSW 17 22 - - - - - - - 21.4 - -
23/01:00am S 19 23 - - - - - - - 21.4 - -
23/12:30am S 16 24 - - - - - - - - - -
23/12:00am SSW 16 21 - - - - - - - 22.1 - -
 
Date/Time
EDT
Wind Sea
Height
m
Swell Vis
km
Cloud Weather Temp
°C
Press
MSL
hPa
Rain since
9am
mm
Dir  Spd
kts
Gust
kts
Height
m
Period
s
Dir
22/11:30pm S 17 23 - - - - - - - 22.1 - -
22/11:00pm S 19 25 - - - - - - - 22.2 - -
22/10:50pm SSW 16 26 - - - - - - - 21.9 - -
22/10:30pm SSW 14 22 - - - - - - - 22.3 - -
22/10:00pm SSE 17 20 - - - - - - - 23.3 - -
22/09:30pm SSE 17 20 - - - - - - - 23.3 - -
22/09:00pm SSE 19 29 - - - - - - - 22.4 - -
22/08:52pm SSE 14 29 - - - - - - - 22.1 - -
22/08:30pm S 12 15 - - - - - - - 23.6 - -
22/08:00pm SSE 15 17 - - - - - - - 24.3 - -
22/07:30pm S 13 15 - - - - - - - 24.4 - -
22/07:00pm SE 13 15 - - - - - - - 24.5 - -
22/06:30pm SE 11 13 - - - - - - - 24.5 - -
22/06:00pm S 12 14 - - - - - - - 24.6 - -
22/05:30pm SSE 17 19 - - - - - - - 24.6 - -
22/05:00pm SSE 16 18 - - - - - - - 24.8 - -

Other formats

Comma delimited format used in spreadsheet applications
http://www.bom.gov.au/fwo/IDN60701/IDN60701.94774.axf

JavaScript Object Notation format (JSON) in row-major order
http://www.bom.gov.au/fwo/IDN60701/IDN60701.94774.json

Data quality

Most of these data are generated automatically and are frequently updated. Quality checks on data are not normally performed. It is possible for incorrect values to appear. Refer to information at About Latest Weather Observations and please check the disclaimer before using these data.